Time,TemperatureF,DewpointF,PressureIn,WindDirection,WindDirectionDegrees,WindSpeedMPH,WindSpeedGustMPH,Humidity,HourlyPrecipIn,Conditions,Clouds,dailyrainin,SoftwareType,DateUTC
2013-05-24 00:00:00,57.4,56.8,29.74,SE,135,8.5,8.5,98,0.04,,---,0.00,VWS V14.01,2013-05-23 14:00:00,
2013-05-24 00:05:00,57.4,56.8,29.74,East,90,3.1,3.4,98,0.04,,---,0.00,VWS V14.01,2013-05-23 14:05:00,
2013-05-24 00:10:00,57.2,56.6,29.74,South,180,4.7,4.7,98,0.04,,---,0.00,VWS V14.01,2013-05-23 14:10:00,
2013-05-24 00:15:00,57.2,56.6,29.74,SSE,158,3.6,3.6,98,0.04,,---,0.00,VWS V14.01,2013-05-23 14:15:00,
2013-05-24 00:20:00,57.2,56.6,29.74,SSE,158,3.8,5.8,98,0.08,,---,0.04,VWS V14.01,2013-05-23 14:20:00,
2013-05-24 00:25:00,57.4,56.8,29.74,SE,135,2.7,2.7,98,0.08,,---,0.04,VWS V14.01,2013-05-23 14:25:00,
2013-05-24 00:30:00,57.4,56.8,29.74,SE,135,7.6,7.6,98,0.04,,---,0.04,VWS V14.01,2013-05-23 14:30:00,
2013-05-24 00:35:00,57.4,56.8,29.74,South,180,2.9,2.9,98,0.04,,---,0.04,VWS V14.01,2013-05-23 14:35:00,
2013-05-24 00:40:00,57.4,56.8,29.74,SSE,158,2.9,2.9,98,0.04,,---,0.04,VWS V14.01,2013-05-23 14:40:00,
2013-05-24 00:45:00,57.4,56.8,29.74,SE,135,3.8,3.8,98,0.04,,---,0.04,VWS V14.01,2013-05-23 14:45:00,
2013-05-24 00:50:00,57.4,56.8,29.71,ENE,68,3.6,3.6,98,0.04,,---,0.04,VWS V14.01,2013-05-23 14:50:00,
2013-05-24 00:55:00,57.2,56.6,29.71,ESE,112,3.6,3.6,98,0.04,,---,0.04,VWS V14.01,2013-05-23 14:55:00,
2013-05-24 01:00:00,57.0,56.5,29.71,SE,135,3.4,3.4,98,0.04,,---,0.04,VWS V14.01,2013-05-23 15:00:00,
2013-05-24 01:05:00,57.2,56.6,29.74,SE,135,2.9,13.0,98,0.04,,---,0.04,VWS V14.01,2013-05-23 15:05:00,
2013-05-24 01:10:00,57.2,56.6,29.74,SE,135,5.4,6.3,98,0.04,,---,0.04,VWS V14.01,2013-05-23 15:10:00,
2013-05-24 01:15:00,57.0,56.5,29.74,SE,135,5.8,5.8,98,0.04,,---,0.04,VWS V14.01,2013-05-23 15:15:00,
2013-05-24 01:20:00,57.4,56.5,29.74,South,180,3.1,13.0,97,0.00,,---,0.04,VWS V14.01,2013-05-23 15:20:00,
2013-05-24 01:25:00,57.2,55.8,29.74,SE,135,1.1,1.6,95,0.00,,---,0.04,VWS V14.01,2013-05-23 15:25:00,
2013-05-24 01:30:00,57.2,55.8,29.74,SE,135,3.4,3.4,95,0.00,,---,0.04,VWS V14.01,2013-05-23 15:30:00,
2013-05-24 01:35:00,57.2,55.5,29.74,East,90,4.3,4.3,94,0.00,,---,0.04,VWS V14.01,2013-05-23 15:35:00,
2013-05-24 01:40:00,57.4,55.7,29.74,SE,135,1.3,4.7,94,0.00,,---,0.04,VWS V14.01,2013-05-23 15:40:00,
2013-05-24 01:45:00,57.6,55.6,29.74,NW,315,4.9,4.9,93,0.00,,---,0.04,VWS V14.01,2013-05-23 15:45:00,
2013-05-24 01:50:00,57.7,55.7,29.74,SSE,158,3.8,6.7,93,0.00,,---,0.04,VWS V14.01,2013-05-23 15:50:00,
2013-05-24 01:55:00,57.7,55.4,29.74,NE,45,2.0,7.2,92,0.00,,---,0.04,VWS V14.01,2013-05-23 15:55:00,
2013-05-24 02:00:00,57.9,55.3,29.74,East,90,2.9,5.8,91,0.00,,---,0.04,VWS V14.01,2013-05-23 16:00:00,
2013-05-24 02:05:00,57.7,55.1,29.74,North,0,2.9,4.3,91,0.00,,---,0.04,VWS V14.01,2013-05-23 16:05:00,
2013-05-24 02:10:00,58.1,55.2,29.74,ESE,112,13.0,13.0,90,0.00,,---,0.04,VWS V14.01,2013-05-23 16:10:00,
2013-05-24 02:15:00,58.5,54.6,29.74,East,90,3.8,10.7,87,0.00,,---,0.04,VWS V14.01,2013-05-23 16:15:00,
2013-05-24 02:20:00,58.5,54.3,29.74,East,90,4.7,4.7,86,0.00,,---,0.04,VWS V14.01,2013-05-23 16:20:00,
2013-05-24 02:25:00,58.5,54.6,29.74,SE,135,5.8,5.8,87,0.00,,---,0.04,VWS V14.01,2013-05-23 16:25:00,
2013-05-24 02:30:00,58.3,55.1,29.74,SE,135,3.1,3.1,89,0.00,,---,0.04,VWS V14.01,2013-05-23 16:30:00,
2013-05-24 02:35:00,58.1,55.2,29.74,SE,135,3.1,3.1,90,0.00,,---,0.04,VWS V14.01,2013-05-23 16:35:00,
2013-05-24 02:40:00,57.9,55.0,29.74,East,90,4.7,4.7,90,0.00,,---,0.04,VWS V14.01,2013-05-23 16:40:00,
2013-05-24 02:45:00,58.1,54.9,29.74,NW,315,6.5,6.5,89,0.00,,---,0.04,VWS V14.01,2013-05-23 16:45:00,
2013-05-24 02:50:00,58.1,54.9,29.74,East,90,12.8,12.8,89,0.00,,---,0.04,VWS V14.01,2013-05-23 16:50:00,
2013-05-24 02:55:00,58.3,54.4,29.74,South,180,3.4,3.4,87,0.00,,---,0.04,VWS V14.01,2013-05-23 16:55:00,
2013-05-24 03:00:00,58.1,54.3,29.74,NE,45,10.3,10.3,87,0.00,,---,0.04,VWS V14.01,2013-05-23 17:00:00,
2013-05-24 03:05:00,57.6,55.0,29.74,East,90,4.9,4.9,91,0.05,,---,0.09,VWS V14.01,2013-05-23 17:05:00,
2013-05-24 03:10:00,57.2,54.9,29.74,East,90,4.0,9.4,92,0.05,,---,0.09,VWS V14.01,2013-05-23 17:10:00,
2013-05-24 03:15:00,57.2,55.2,29.74,SSE,158,2.0,4.3,93,0.05,,---,0.09,VWS V14.01,2013-05-23 17:15:00,
2013-05-24 03:20:00,57.2,55.5,29.71,SSE,158,4.0,7.2,94,0.05,,---,0.09,VWS V14.01,2013-05-23 17:20:00,
2013-05-24 03:25:00,57.2,55.8,29.71,ESE,112,1.6,4.3,95,0.05,,---,0.09,VWS V14.01,2013-05-23 17:25:00,
2013-05-24 03:30:00,57.4,56.2,29.71,South,180,4.7,4.7,96,0.05,,---,0.09,VWS V14.01,2013-05-23 17:30:00,
2013-05-24 03:35:00,57.4,56.2,29.71,South,180,3.6,8.7,96,0.05,,---,0.09,VWS V14.01,2013-05-23 17:35:00,
2013-05-24 03:40:00,57.2,56.1,29.71,SE,135,2.0,2.0,96,0.05,,---,0.09,VWS V14.01,2013-05-23 17:40:00,
2013-05-24 03:45:00,57.2,56.1,29.71,East,90,2.0,2.5,96,0.05,,---,0.09,VWS V14.01,2013-05-23 17:45:00,
2013-05-24 03:50:00,57.2,56.4,29.71,SSE,158,2.9,2.9,97,0.05,,---,0.09,VWS V14.01,2013-05-23 17:50:00,
2013-05-24 03:55:00,57.2,56.6,29.71,ENE,68,3.8,3.8,98,0.05,,---,0.09,VWS V14.01,2013-05-23 17:55:00,
2013-05-24 04:00:00,57.2,56.6,29.71,East,90,2.2,2.2,98,0.05,,---,0.09,VWS V14.01,2013-05-23 18:00:00,
2013-05-24 04:05:00,57.2,56.6,29.74,SE,135,0.0,2.9,98,0.00,,---,0.09,VWS V14.01,2013-05-23 18:05:00,
2013-05-24 04:10:00,57.4,56.8,29.74,SE,135,2.2,2.2,98,0.00,,---,0.09,VWS V14.01,2013-05-23 18:10:00,
2013-05-24 04:16:00,57.4,56.8,29.74,SSE,158,4.0,4.0,98,0.00,,---,0.09,VWS V14.01,2013-05-23 18:16:00,
2013-05-24 04:21:00,57.4,56.8,29.74,East,90,2.0,2.0,98,0.00,,---,0.09,VWS V14.01,2013-05-23 18:21:00,
2013-05-24 04:26:00,57.4,56.8,29.74,East,90,3.4,3.4,98,0.00,,---,0.09,VWS V14.01,2013-05-23 18:26:00,
2013-05-24 04:31:00,57.7,57.2,29.74,NE,45,3.1,3.1,98,0.00,,---,0.09,VWS V14.01,2013-05-23 18:31:00,
2013-05-24 04:36:00,57.9,57.4,29.74,ESE,112,4.0,4.0,98,0.00,,---,0.09,VWS V14.01,2013-05-23 18:36:00,
2013-05-24 04:42:00,57.9,57.4,29.74,SE,135,3.6,3.6,98,0.00,,---,0.09,VWS V14.01,2013-05-23 18:42:00,
2013-05-24 04:48:00,57.9,57.4,29.74,East,90,3.6,3.6,98,0.00,,---,0.09,VWS V14.01,2013-05-23 18:48:00,
2013-05-24 04:53:00,57.7,57.2,29.74,SSE,158,3.8,3.8,98,0.00,,---,0.09,VWS V14.01,2013-05-23 18:53:00,
2013-05-24 04:58:00,57.4,56.8,29.74,SSE,158,2.9,5.4,98,0.00,,---,0.09,VWS V14.01,2013-05-23 18:58:00,
2013-05-24 05:03:00,57.4,56.8,29.74,North,0,11.9,11.9,98,0.00,,---,0.09,VWS V14.01,2013-05-23 19:03:00,
2013-05-24 05:08:00,57.4,56.8,29.74,ESE,112,2.0,2.0,98,0.00,,---,0.09,VWS V14.01,2013-05-23 19:08:00,
2013-05-24 05:13:00,57.2,56.6,29.74,NE,45,2.7,2.7,98,0.00,,---,0.09,VWS V14.01,2013-05-23 19:13:00,
2013-05-24 05:18:00,57.2,56.6,29.74,South,180,2.5,2.5,98,0.00,,---,0.09,VWS V14.01,2013-05-23 19:18:00,
2013-05-24 05:23:00,57.2,56.6,29.74,SE,135,8.7,8.7,98,0.00,,---,0.09,VWS V14.01,2013-05-23 19:23:00,
2013-05-24 05:28:00,57.2,56.6,29.74,ESE,112,5.8,6.0,98,0.00,,---,0.09,VWS V14.01,2013-05-23 19:28:00,
2013-05-24 05:33:00,57.2,56.4,29.74,ESE,112,2.7,4.3,97,0.00,,---,0.09,VWS V14.01,2013-05-23 19:33:00,
2013-05-24 05:38:00,57.6,57.0,29.74,SE,135,3.4,4.3,98,0.00,,---,0.09,VWS V14.01,2013-05-23 19:38:00,
2013-05-24 05:43:00,57.7,57.2,29.74,East,90,3.1,3.1,98,0.00,,---,0.09,VWS V14.01,2013-05-23 19:43:00,
2013-05-24 05:48:00,57.7,56.9,29.74,ESE,112,6.3,6.5,97,0.00,,---,0.09,VWS V14.01,2013-05-23 19:48:00,
2013-05-24 05:53:00,57.9,56.8,29.74,ENE,68,2.5,5.6,96,0.00,,---,0.09,VWS V14.01,2013-05-23 19:53:00,
2013-05-24 05:58:00,57.7,56.6,29.74,SE,135,2.7,2.7,96,0.00,,---,0.09,VWS V14.01,2013-05-23 19:58:00,
2013-05-24 06:03:00,57.9,55.9,29.74,North,0,3.1,8.5,93,0.00,,---,0.09,VWS V14.01,2013-05-23 20:03:00,
2013-05-24 06:08:00,57.9,55.3,29.74,South,180,9.6,9.6,91,0.00,,---,0.09,VWS V14.01,2013-05-23 20:08:00,
2013-05-24 06:13:00,58.1,54.9,29.74,East,90,7.8,7.8,89,0.00,,---,0.09,VWS V14.01,2013-05-23 20:13:00,
2013-05-24 06:18:00,57.9,54.4,29.74,NNE,22,3.8,3.8,88,0.00,,---,0.09,VWS V14.01,2013-05-23 20:18:00,
2013-05-24 06:23:00,58.1,53.9,29.74,East,90,6.0,6.0,86,0.00,,---,0.09,VWS V14.01,2013-05-23 20:23:00,
2013-05-24 06:28:00,57.9,55.0,29.74,ENE,68,6.0,6.0,90,0.00,,---,0.09,VWS V14.01,2013-05-23 20:28:00,
2013-05-24 06:33:00,57.9,55.6,29.76,East,90,2.9,2.9,92,0.00,,---,0.09,VWS V14.01,2013-05-23 20:33:00,
2013-05-24 06:38:00,57.7,55.7,29.76,NE,45,6.0,6.0,93,0.00,,---,0.09,VWS V14.01,2013-05-23 20:38:00,
2013-05-24 06:43:00,57.6,55.8,29.76,ENE,68,4.9,4.9,94,0.00,,---,0.09,VWS V14.01,2013-05-23 20:43:00,
2013-05-24 06:48:00,57.6,56.4,29.76,SSE,158,5.8,5.8,96,0.00,,---,0.09,VWS V14.01,2013-05-23 20:48:00,
2013-05-24 06:53:00,57.4,56.5,29.76,SSE,158,4.0,4.0,97,0.00,,---,0.09,VWS V14.01,2013-05-23 20:53:00,
2013-05-24 06:58:00,57.2,56.4,29.76,SE,135,4.7,4.7,97,0.00,,---,0.09,VWS V14.01,2013-05-23 20:58:00,
2013-05-24 07:03:00,57.2,56.4,29.76,SE,135,5.4,5.4,97,0.04,,---,0.13,VWS V14.01,2013-05-23 21:03:00,
2013-05-24 07:08:00,57.2,56.6,29.76,SE,135,5.6,5.6,98,0.04,,---,0.13,VWS V14.01,2013-05-23 21:08:00,
2013-05-24 07:13:00,57.2,56.6,29.76,SSE,158,3.8,8.1,98,0.04,,---,0.13,VWS V14.01,2013-05-23 21:13:00,
2013-05-24 07:18:00,57.2,56.6,29.79,South,180,2.5,2.5,98,0.12,,---,0.21,VWS V14.01,2013-05-23 21:18:00,
2013-05-24 07:23:00,57.2,56.6,29.79,SSW,202,4.9,4.9,98,0.16,,---,0.25,VWS V14.01,2013-05-23 21:23:00,
2013-05-24 07:28:00,57.2,56.6,29.79,WNW,292,3.1,3.1,98,0.16,,---,0.25,VWS V14.01,2013-05-23 21:28:00,
2013-05-24 07:33:00,57.2,56.4,29.76,SSE,158,2.0,2.9,97,0.16,,---,0.25,VWS V14.01,2013-05-23 21:33:00,
2013-05-24 07:38:00,57.4,56.5,29.76,SSE,158,6.0,6.0,97,0.16,,---,0.25,VWS V14.01,2013-05-23 21:38:00,
2013-05-24 07:43:00,57.4,56.5,29.76,SE,135,2.2,3.4,97,0.16,,---,0.25,VWS V14.01,2013-05-23 21:43:00,
2013-05-24 07:48:00,57.6,56.7,29.79,SE,135,2.7,2.7,97,0.16,,---,0.25,VWS V14.01,2013-05-23 21:48:00,
2013-05-24 07:53:00,57.6,56.7,29.79,SSE,158,3.4,3.4,97,0.16,,---,0.25,VWS V14.01,2013-05-23 21:53:00,
2013-05-24 07:58:00,57.6,57.0,29.79,ENE,68,3.4,3.4,98,0.16,,---,0.25,VWS V14.01,2013-05-23 21:58:00,
2013-05-24 08:03:00,57.6,57.0,29.76,ENE,68,2.7,6.3,98,0.12,,---,0.25,VWS V14.01,2013-05-23 22:03:00,
2013-05-24 08:08:00,57.6,57.0,29.76,SE,135,3.4,3.4,98,0.12,,---,0.25,VWS V14.01,2013-05-23 22:08:00,
2013-05-24 08:13:00,58.1,57.0,29.76,NE,45,2.9,2.9,96,0.12,,---,0.25,VWS V14.01,2013-05-23 22:13:00,
2013-05-24 08:18:00,58.3,56.9,29.79,ESE,112,2.7,2.7,95,0.04,,---,0.25,VWS V14.01,2013-05-23 22:18:00,
2013-05-24 08:23:00,58.3,56.6,29.79,SSE,158,8.5,8.5,94,0.00,,---,0.25,VWS V14.01,2013-05-23 22:23:00,
2013-05-24 08:28:00,58.8,55.9,29.79,SE,135,4.0,4.0,90,0.00,,---,0.25,VWS V14.01,2013-05-23 22:28:00,
2013-05-24 08:33:00,59.2,53.7,29.76,SSE,158,2.0,5.4,82,0.00,,---,0.25,VWS V14.01,2013-05-23 22:33:00,
2013-05-24 08:38:00,59.0,53.5,29.76,South,180,3.6,3.6,82,0.00,,---,0.25,VWS V14.01,2013-05-23 22:38:00,
2013-05-24 08:43:00,58.8,53.3,29.76,SE,135,4.3,4.3,82,0.00,,---,0.25,VWS V14.01,2013-05-23 22:43:00,
2013-05-24 08:48:00,59.0,53.2,29.76,NNW,338,5.8,5.8,81,0.00,,---,0.25,VWS V14.01,2013-05-23 22:48:00,
2013-05-24 08:53:00,59.2,52.7,29.76,SE,135,3.6,3.8,79,0.00,,---,0.25,VWS V14.01,2013-05-23 22:53:00,
2013-05-24 08:58:00,59.2,52.7,29.76,SE,135,3.8,3.8,79,0.00,,---,0.25,VWS V14.01,2013-05-23 22:58:00,
2013-05-24 09:03:00,59.0,53.2,29.76,East,90,4.0,4.0,81,0.00,,---,0.25,VWS V14.01,2013-05-23 23:03:00,
2013-05-24 09:08:00,59.2,53.4,29.76,SSE,158,2.9,4.7,81,0.00,,---,0.25,VWS V14.01,2013-05-23 23:08:00,
2013-05-24 09:13:00,59.2,53.4,29.76,SE,135,1.6,1.6,81,0.00,,---,0.25,VWS V14.01,2013-05-23 23:13:00,
2013-05-24 09:18:00,59.7,51.8,29.79,NE,45,3.4,3.6,75,0.00,,---,0.25,VWS V14.01,2013-05-23 23:18:00,
2013-05-24 09:23:00,59.5,52.3,29.79,ESE,112,3.1,3.1,77,0.00,,---,0.25,VWS V14.01,2013-05-23 23:23:00,
2013-05-24 09:28:00,59.7,53.5,29.79,NE,45,3.1,3.1,80,0.00,,---,0.25,VWS V14.01,2013-05-23 23:28:00,
2013-05-24 09:33:00,60.1,54.2,29.79,SE,135,3.4,3.4,81,0.00,,---,0.25,VWS V14.01,2013-05-23 23:33:00,
2013-05-24 09:38:00,60.8,53.9,29.79,WSW,248,2.9,2.9,78,0.00,,---,0.25,VWS V14.01,2013-05-23 23:38:00,
2013-05-24 09:43:00,61.0,54.1,29.79,NE,45,4.7,4.7,78,0.00,,---,0.25,VWS V14.01,2013-05-23 23:43:00,
2013-05-24 09:48:00,61.2,53.9,29.79,NNE,22,7.2,7.2,77,0.00,,---,0.25,VWS V14.01,2013-05-23 23:48:00,
2013-05-24 09:53:00,61.5,52.4,29.79,South,180,14.1,14.1,72,0.00,,---,0.25,VWS V14.01,2013-05-23 23:53:00,
2013-05-24 09:58:00,61.9,51.2,29.79,SSE,158,2.7,2.7,68,0.00,,---,0.25,VWS V14.01,2013-05-23 23:58:00,
2013-05-24 10:03:00,61.9,52.0,29.76,SSW,202,7.4,7.4,70,0.00,,---,0.25,VWS V14.01,2013-05-24 00:03:00,
2013-05-24 10:08:00,61.9,52.0,29.76,ESE,112,4.0,4.0,70,0.00,,---,0.25,VWS V14.01,2013-05-24 00:08:00,
2013-05-24 10:13:00,62.2,51.6,29.76,SSE,158,4.0,4.0,68,0.00,,---,0.25,VWS V14.01,2013-05-24 00:13:00,
2013-05-24 10:18:00,62.1,51.8,29.76,SSE,158,3.6,3.6,69,0.00,,---,0.25,VWS V14.01,2013-05-24 00:18:00,
2013-05-24 10:23:00,62.4,52.1,29.76,SE,135,5.4,5.4,69,0.00,,---,0.25,VWS V14.01,2013-05-24 00:23:00,
2013-05-24 10:28:00,62.6,52.3,29.76,SSE,158,4.0,4.0,69,0.00,,---,0.25,VWS V14.01,2013-05-24 00:28:00,
2013-05-24 10:33:00,62.8,52.1,29.76,SE,135,2.9,5.4,68,0.00,,---,0.25,VWS V14.01,2013-05-24 00:33:00,
2013-05-24 10:38:00,63.0,52.2,29.76,ESE,112,2.7,7.4,68,0.00,,---,0.25,VWS V14.01,2013-05-24 00:38:00,
2013-05-24 10:43:00,63.1,53.6,29.76,SE,135,2.9,7.2,71,0.00,,---,0.25,VWS V14.01,2013-05-24 00:43:00,
2013-05-24 10:48:00,63.1,52.4,29.76,East,90,22.8,22.8,68,0.00,,---,0.25,VWS V14.01,2013-05-24 00:48:00,
2013-05-24 10:53:00,63.5,52.0,29.76,ENE,68,3.1,4.3,66,0.00,,---,0.25,VWS V14.01,2013-05-24 00:53:00,
2013-05-24 10:58:00,63.1,53.2,29.76,ESE,112,2.9,2.9,70,0.00,,---,0.25,VWS V14.01,2013-05-24 00:58:00,
2013-05-24 11:03:00,63.3,51.8,29.76,East,90,8.5,8.5,66,0.00,,---,0.25,VWS V14.01,2013-05-24 01:03:00,
2013-05-24 11:08:00,63.3,51.4,29.76,ESE,112,8.5,8.5,65,0.00,,---,0.25,VWS V14.01,2013-05-24 01:08:00,
2013-05-24 11:13:00,63.3,51.8,29.76,East,90,3.1,5.6,66,0.00,,---,0.25,VWS V14.01,2013-05-24 01:13:00,
2013-05-24 11:18:00,63.0,53.0,29.76,ESE,112,3.8,3.8,70,0.00,,---,0.25,VWS V14.01,2013-05-24 01:18:00,
2013-05-24 11:23:00,63.1,52.4,29.76,NNW,338,4.7,4.7,68,0.00,,---,0.25,VWS V14.01,2013-05-24 01:23:00,
2013-05-24 11:28:00,63.1,51.6,29.76,SSE,158,4.0,4.0,66,0.00,,---,0.25,VWS V14.01,2013-05-24 01:28:00,
2013-05-24 11:33:00,63.1,52.4,29.76,East,90,9.4,9.4,68,0.00,,---,0.25,VWS V14.01,2013-05-24 01:33:00,
2013-05-24 11:38:00,63.0,52.2,29.76,SE,135,3.8,4.9,68,0.00,,---,0.25,VWS V14.01,2013-05-24 01:38:00,
2013-05-24 11:43:00,63.3,52.2,29.76,SE,135,2.9,2.9,67,0.00,,---,0.25,VWS V14.01,2013-05-24 01:43:00,
2013-05-24 11:48:00,63.5,52.4,29.76,SW,225,5.6,5.6,67,0.00,,---,0.25,VWS V14.01,2013-05-24 01:48:00,
2013-05-24 11:53:00,63.1,52.4,29.76,SE,135,4.3,4.3,68,0.00,,---,0.25,VWS V14.01,2013-05-24 01:53:00,
2013-05-24 11:58:00,63.0,52.6,29.76,SSE,158,4.7,5.8,69,0.00,,---,0.25,VWS V14.01,2013-05-24 01:58:00,
2013-05-24 12:03:00,63.0,53.0,29.74,East,90,6.3,6.3,70,0.00,,---,0.25,VWS V14.01,2013-05-24 02:03:00,
2013-05-24 12:08:00,63.3,52.2,29.74,SE,135,4.7,4.7,67,0.00,,---,0.25,VWS V14.01,2013-05-24 02:08:00,
2013-05-24 12:13:00,63.3,52.2,29.74,ESE,112,4.0,4.0,67,0.00,,---,0.25,VWS V14.01,2013-05-24 02:13:00,
2013-05-24 12:18:00,63.9,52.3,29.76,SSE,158,3.1,4.9,66,0.00,,---,0.25,VWS V14.01,2013-05-24 02:18:00,
2013-05-24 12:23:00,64.2,51.8,29.76,ESE,112,6.3,8.5,64,0.00,,---,0.25,VWS V14.01,2013-05-24 02:23:00,
2013-05-24 12:28:00,64.4,50.7,29.76,East,90,1.6,8.1,61,0.00,,---,0.25,VWS V14.01,2013-05-24 02:28:00,
2013-05-24 12:33:00,63.9,51.9,29.74,South,180,2.9,3.1,65,0.00,,---,0.25,VWS V14.01,2013-05-24 02:33:00,
2013-05-24 12:38:00,64.2,53.0,29.74,East,90,2.7,4.0,67,0.00,,---,0.25,VWS V14.01,2013-05-24 02:38:00,
2013-05-24 12:43:00,63.9,52.7,29.74,SE,135,10.7,10.7,67,0.00,,---,0.25,VWS V14.01,2013-05-24 02:43:00,
2013-05-24 12:48:00,64.2,52.2,29.74,ESE,112,3.8,3.8,65,0.00,,---,0.25,VWS V14.01,2013-05-24 02:48:00,
2013-05-24 12:53:00,64.0,52.0,29.74,South,180,8.7,8.7,65,0.00,,---,0.25,VWS V14.01,2013-05-24 02:53:00,
2013-05-24 12:58:00,63.9,52.3,29.74,SE,135,7.4,7.4,66,0.00,,---,0.25,VWS V14.01,2013-05-24 02:58:00,
2013-05-24 13:03:00,64.4,51.5,29.74,ESE,112,5.4,5.4,63,0.00,,---,0.25,VWS V14.01,2013-05-24 03:03:00,
2013-05-24 13:08:00,64.2,50.1,29.74,ESE,112,3.1,3.1,60,0.00,,---,0.25,VWS V14.01,2013-05-24 03:08:00,
2013-05-24 13:13:00,64.4,50.2,29.74,SE,135,1.3,3.8,60,0.00,,---,0.25,VWS V14.01,2013-05-24 03:13:00,
2013-05-24 13:18:00,64.4,50.7,29.74,ENE,68,7.6,7.6,61,0.00,,---,0.25,VWS V14.01,2013-05-24 03:18:00,
2013-05-24 13:23:00,64.4,49.8,29.74,WSW,248,4.3,4.3,59,0.00,,---,0.25,VWS V14.01,2013-05-24 03:23:00,
2013-05-24 13:28:00,64.4,50.2,29.74,SE,135,6.5,6.5,60,0.00,,---,0.25,VWS V14.01,2013-05-24 03:28:00,
2013-05-24 13:33:00,64.0,51.6,29.74,East,90,4.0,7.2,64,0.00,,---,0.25,VWS V14.01,2013-05-24 03:33:00,
2013-05-24 13:38:00,64.2,49.2,29.74,SE,135,11.9,11.9,58,0.00,,---,0.25,VWS V14.01,2013-05-24 03:38:00,
2013-05-24 13:43:00,64.2,50.5,29.74,NW,315,4.0,4.0,61,0.00,,---,0.25,VWS V14.01,2013-05-24 03:43:00,
2013-05-24 13:48:00,64.4,49.8,29.74,SE,135,2.5,7.4,59,0.00,,---,0.25,VWS V14.01,2013-05-24 03:48:00,
2013-05-24 13:53:00,64.0,50.8,29.74,SSE,158,2.5,7.6,62,0.00,,---,0.25,VWS V14.01,2013-05-24 03:53:00,
2013-05-24 13:58:00,63.9,52.3,29.74,ESE,112,3.8,3.8,66,0.00,,---,0.25,VWS V14.01,2013-05-24 03:58:00,
2013-05-24 14:01:00,64.0,49.4,29.74,ESE,112,10.7,10.7,59,0.00,,---,0.25,VWS V14.01,2013-05-24 04:01:00,
2013-05-24 14:06:00,64.6,50.4,29.74,East,90,11.0,11.0,60,0.00,,---,0.25,VWS V14.01,2013-05-24 04:06:00,
2013-05-24 14:11:00,64.0,50.3,29.74,East,90,6.3,9.8,61,0.00,,---,0.25,VWS V14.01,2013-05-24 04:11:00,
2013-05-24 14:16:00,64.2,49.6,29.74,ESE,112,4.3,4.3,59,0.00,,---,0.25,VWS V14.01,2013-05-24 04:16:00,
2013-05-24 14:21:00,64.0,49.4,29.74,ESE,112,1.3,3.4,59,0.00,,---,0.25,VWS V14.01,2013-05-24 04:21:00,
2013-05-24 14:26:00,63.5,50.7,29.74,SSE,158,1.3,1.3,63,0.00,,---,0.25,VWS V14.01,2013-05-24 04:26:00,
2013-05-24 14:31:00,63.3,49.7,29.74,NE,45,5.4,6.3,61,0.00,,---,0.25,VWS V14.01,2013-05-24 04:31:00,
2013-05-24 14:36:00,63.0,50.2,29.74,ESE,112,0.9,3.1,63,0.00,,---,0.25,VWS V14.01,2013-05-24 04:36:00,
2013-05-24 14:41:00,63.0,50.2,29.74,SE,135,2.7,2.7,63,0.00,,---,0.25,VWS V14.01,2013-05-24 04:41:00,
2013-05-24 14:46:00,62.6,50.7,29.74,East,90,4.9,4.9,65,0.00,,---,0.25,VWS V14.01,2013-05-24 04:46:00,
2013-05-24 14:51:00,62.6,49.8,29.74,SSW,202,3.6,3.8,63,0.00,,---,0.25,VWS V14.01,2013-05-24 04:51:00,
2013-05-24 14:56:00,62.6,49.4,29.74,East,90,4.7,4.7,62,0.00,,---,0.25,VWS V14.01,2013-05-24 04:56:00,
2013-05-24 15:01:00,62.8,49.2,29.74,NE,45,3.6,3.6,61,0.00,,---,0.25,VWS V14.01,2013-05-24 05:01:00,
2013-05-24 15:06:00,62.8,48.7,29.74,SW,225,4.9,4.9,60,0.00,,---,0.25,VWS V14.01,2013-05-24 05:06:00,
2013-05-24 15:11:00,62.8,49.2,29.74,NE,45,2.0,2.0,61,0.00,,---,0.25,VWS V14.01,2013-05-24 05:11:00,
2013-05-24 15:16:00,62.6,49.0,29.74,South,180,2.5,2.5,61,0.00,,---,0.25,VWS V14.01,2013-05-24 05:16:00,
2013-05-24 15:21:00,62.8,50.4,29.76,ENE,68,6.5,6.5,64,0.00,,---,0.25,VWS V14.01,2013-05-24 05:21:00,
2013-05-24 15:26:00,62.8,50.0,29.76,ENE,68,2.5,2.5,63,0.00,,---,0.25,VWS V14.01,2013-05-24 05:26:00,
2013-05-24 15:31:00,62.6,49.0,29.76,SSW,202,4.0,4.0,61,0.00,,---,0.25,VWS V14.01,2013-05-24 05:31:00,
2013-05-24 15:36:00,62.6,50.3,29.76,SE,135,2.5,2.5,64,0.00,,---,0.25,VWS V14.01,2013-05-24 05:36:00,
2013-05-24 15:41:00,62.4,50.5,29.76,South,180,2.7,4.3,65,0.00,,---,0.25,VWS V14.01,2013-05-24 05:41:00,
2013-05-24 15:46:00,62.2,49.1,29.76,SW,225,3.4,3.4,62,0.00,,---,0.25,VWS V14.01,2013-05-24 05:46:00,
2013-05-24 15:51:00,62.6,49.0,29.76,SE,135,7.4,7.4,61,0.00,,---,0.25,VWS V14.01,2013-05-24 05:51:00,
2013-05-24 15:56:00,62.4,50.5,29.76,SSE,158,7.6,7.6,65,0.00,,---,0.25,VWS V14.01,2013-05-24 05:56:00,
2013-05-24 16:01:00,62.4,50.5,29.76,SSE,158,2.7,2.7,65,0.00,,---,0.25,VWS V14.01,2013-05-24 06:01:00,
2013-05-24 16:06:00,62.4,51.3,29.76,ENE,68,3.4,5.4,67,0.00,,---,0.25,VWS V14.01,2013-05-24 06:06:00,
2013-05-24 16:11:00,62.6,51.1,29.76,SE,135,3.6,3.6,66,0.00,,---,0.25,VWS V14.01,2013-05-24 06:11:00,
2013-05-24 16:16:00,62.6,51.1,29.76,SSE,158,1.6,1.6,66,0.00,,---,0.25,VWS V14.01,2013-05-24 06:16:00,
2013-05-24 16:21:00,62.1,51.4,29.76,SE,135,2.9,5.6,68,0.00,,---,0.25,VWS V14.01,2013-05-24 06:21:00,
2013-05-24 16:26:00,62.1,51.4,29.76,East,90,4.0,4.0,68,0.00,,---,0.25,VWS V14.01,2013-05-24 06:26:00,
2013-05-24 16:31:00,62.1,50.6,29.76,SE,135,4.7,4.7,66,0.00,,---,0.25,VWS V14.01,2013-05-24 06:31:00,
2013-05-24 16:36:00,60.3,53.7,29.79,SSW,202,3.4,5.4,79,0.00,,---,0.25,VWS V14.01,2013-05-24 06:36:00,
2013-05-24 16:41:00,59.7,54.2,29.79,SSW,202,3.4,3.4,82,0.00,,---,0.25,VWS V14.01,2013-05-24 06:41:00,
2013-05-24 16:46:00,59.2,54.7,29.79,SE,135,3.8,3.8,85,0.00,,---,0.25,VWS V14.01,2013-05-24 06:46:00,
2013-05-24 16:51:00,58.8,55.0,29.79,SE,135,13.0,13.0,87,0.00,,---,0.25,VWS V14.01,2013-05-24 06:51:00,
2013-05-24 16:56:00,58.5,55.5,29.79,East,90,3.6,4.0,90,0.00,,---,0.25,VWS V14.01,2013-05-24 06:56:00,
2013-05-24 17:01:00,58.5,56.2,29.79,SE,135,10.1,10.1,92,0.04,,---,0.29,VWS V14.01,2013-05-24 07:01:00,
2013-05-24 17:06:00,58.3,56.0,29.79,ESE,112,3.1,3.1,92,0.04,,---,0.29,VWS V14.01,2013-05-24 07:06:00,
2013-05-24 17:11:00,58.1,55.8,29.79,SSE,158,10.1,10.1,92,0.04,,---,0.29,VWS V14.01,2013-05-24 07:11:00,
2013-05-24 17:16:00,57.9,55.6,29.79,SE,135,2.0,2.0,92,0.04,,---,0.29,VWS V14.01,2013-05-24 07:16:00,
2013-05-24 17:21:00,57.9,55.3,29.79,NE,45,4.9,4.9,91,0.04,,---,0.29,VWS V14.01,2013-05-24 07:21:00,
2013-05-24 17:26:00,57.9,55.3,29.79,SSE,158,6.0,6.0,91,0.04,,---,0.29,VWS V14.01,2013-05-24 07:26:00,
2013-05-24 17:31:00,57.9,55.3,29.79,SE,135,2.9,2.9,91,0.04,,---,0.29,VWS V14.01,2013-05-24 07:31:00,
2013-05-24 17:36:00,57.9,55.3,29.79,SSE,158,4.0,4.0,91,0.04,,---,0.29,VWS V14.01,2013-05-24 07:36:00,
2013-05-24 17:41:00,58.1,55.2,29.79,East,90,4.0,6.0,90,0.04,,---,0.29,VWS V14.01,2013-05-24 07:41:00,
2013-05-24 17:46:00,58.1,54.3,29.79,ENE,68,2.9,7.8,87,0.04,,---,0.29,VWS V14.01,2013-05-24 07:46:00,
2013-05-24 17:51:00,58.1,53.9,29.79,East,90,2.7,2.7,86,0.04,,---,0.29,VWS V14.01,2013-05-24 07:51:00,
2013-05-24 17:56:00,58.1,54.3,29.79,East,90,2.0,3.8,87,0.04,,---,0.29,VWS V14.01,2013-05-24 07:56:00,
2013-05-24 18:01:00,57.9,54.1,29.79,SSW,202,4.5,4.5,87,0.00,,---,0.29,VWS V14.01,2013-05-24 08:01:00,
2013-05-24 18:06:00,58.1,53.9,29.79,SE,135,2.7,5.4,86,0.00,,---,0.29,VWS V14.01,2013-05-24 08:06:00,
2013-05-24 18:11:00,58.3,53.5,29.79,ENE,68,7.6,7.6,84,0.00,,---,0.29,VWS V14.01,2013-05-24 08:11:00,
2013-05-24 18:16:00,58.5,52.7,29.79,ESE,112,2.7,2.7,81,0.00,,---,0.29,VWS V14.01,2013-05-24 08:16:00,
2013-05-24 18:21:00,58.5,52.7,29.82,SSE,158,2.7,2.9,81,0.00,,---,0.29,VWS V14.01,2013-05-24 08:21:00,
2013-05-24 18:26:00,58.1,52.3,29.82,SSE,158,2.0,2.0,81,0.00,,---,0.29,VWS V14.01,2013-05-24 08:26:00,
2013-05-24 18:31:00,57.9,52.8,29.82,SW,225,4.9,4.9,83,0.00,,---,0.29,VWS V14.01,2013-05-24 08:31:00,
2013-05-24 18:36:00,58.6,51.5,29.79,South,180,3.8,4.7,77,0.00,,---,0.29,VWS V14.01,2013-05-24 08:36:00,
2013-05-24 18:41:00,58.3,52.2,29.79,ESE,112,5.8,5.8,80,0.00,,---,0.29,VWS V14.01,2013-05-24 08:41:00,
2013-05-24 18:46:00,59.0,50.4,29.79,East,90,3.4,3.8,73,0.00,,---,0.29,VWS V14.01,2013-05-24 08:46:00,
2013-05-24 18:51:00,59.0,50.4,29.82,SSE,158,1.1,2.5,73,0.00,,---,0.29,VWS V14.01,2013-05-24 08:51:00,
2013-05-24 18:56:00,58.8,50.6,29.82,East,90,2.0,4.0,74,0.00,,---,0.29,VWS V14.01,2013-05-24 08:56:00,
2013-05-24 19:01:00,59.4,50.0,29.82,ESE,112,8.5,8.5,71,0.00,,---,0.29,VWS V14.01,2013-05-24 09:01:00,
2013-05-24 19:06:00,59.5,49.8,29.82,SSE,158,8.5,8.5,70,0.00,,---,0.29,VWS V14.01,2013-05-24 09:06:00,
2013-05-24 19:11:00,60.1,49.1,29.82,SE,135,5.6,5.6,67,0.00,,---,0.29,VWS V14.01,2013-05-24 09:11:00,
2013-05-24 19:16:00,59.9,49.7,29.82,SE,135,7.2,7.2,69,0.00,,---,0.29,VWS V14.01,2013-05-24 09:16:00,
2013-05-24 19:21:00,59.9,49.3,29.82,SE,135,3.6,6.0,68,0.00,,---,0.29,VWS V14.01,2013-05-24 09:21:00,
2013-05-24 19:26:00,60.1,49.9,29.82,SE,135,3.1,6.0,69,0.00,,---,0.29,VWS V14.01,2013-05-24 09:26:00,
2013-05-24 19:31:00,59.9,50.1,29.82,SSE,158,6.3,6.3,70,0.00,,---,0.29,VWS V14.01,2013-05-24 09:31:00,
2013-05-24 19:36:00,59.9,50.1,29.82,SE,135,7.8,7.8,70,0.00,,---,0.29,VWS V14.01,2013-05-24 09:36:00,
2013-05-24 19:41:00,59.7,50.7,29.82,South,180,4.9,4.9,72,0.00,,---,0.29,VWS V14.01,2013-05-24 09:41:00,
2013-05-24 19:46:00,59.9,50.1,29.82,SE,135,4.7,4.7,70,0.00,,---,0.29,VWS V14.01,2013-05-24 09:46:00,
2013-05-24 19:51:00,60.1,50.3,29.82,North,0,2.9,4.7,70,0.00,,---,0.29,VWS V14.01,2013-05-24 09:51:00,
2013-05-24 19:56:00,59.9,50.5,29.82,SE,135,4.9,4.9,71,0.00,,---,0.29,VWS V14.01,2013-05-24 09:56:00,
2013-05-24 20:01:00,59.7,51.1,29.82,South,180,5.4,5.4,73,0.00,,---,0.29,VWS V14.01,2013-05-24 10:01:00,
2013-05-24 20:06:00,60.1,50.7,29.82,ESE,112,4.9,8.1,71,0.00,,---,0.29,VWS V14.01,2013-05-24 10:06:00,
2013-05-24 20:11:00,60.1,51.0,29.82,SSE,158,6.3,6.3,72,0.00,,---,0.29,VWS V14.01,2013-05-24 10:11:00,
2013-05-24 20:16:00,60.1,51.0,29.82,NE,45,6.5,6.5,72,0.00,,---,0.29,VWS V14.01,2013-05-24 10:16:00,
2013-05-24 20:21:00,60.6,50.4,29.85,East,90,4.0,10.7,69,0.00,,---,0.29,VWS V14.01,2013-05-24 10:21:00,
2013-05-24 20:26:00,60.3,50.5,29.85,SE,135,2.0,6.7,70,0.00,,---,0.29,VWS V14.01,2013-05-24 10:26:00,
2013-05-24 20:31:00,60.3,50.5,29.85,South,180,2.9,3.6,70,0.00,,---,0.29,VWS V14.01,2013-05-24 10:31:00,
2013-05-24 20:36:00,60.3,50.8,29.85,SW,225,3.6,3.6,71,0.00,,---,0.29,VWS V14.01,2013-05-24 10:36:00,
2013-05-24 20:41:00,60.4,51.0,29.85,SSW,202,3.1,3.1,71,0.00,,---,0.29,VWS V14.01,2013-05-24 10:41:00,
2013-05-24 20:46:00,60.1,51.0,29.85,SSE,158,2.9,3.8,72,0.00,,---,0.29,VWS V14.01,2013-05-24 10:46:00,
2013-05-24 20:51:00,59.9,50.9,29.85,SSE,158,2.5,2.9,72,0.00,,---,0.29,VWS V14.01,2013-05-24 10:51:00,
2013-05-24 20:56:00,59.9,51.2,29.85,SSE,158,4.7,4.7,73,0.00,,---,0.29,VWS V14.01,2013-05-24 10:56:00,
2013-05-24 21:01:00,59.7,51.1,29.85,SSE,158,3.6,3.6,73,0.00,,---,0.29,VWS V14.01,2013-05-24 11:01:00,
2013-05-24 21:06:00,59.5,51.3,29.85,SSE,158,6.0,6.0,74,0.00,,---,0.29,VWS V14.01,2013-05-24 11:06:00,
2013-05-24 21:11:00,59.4,51.5,29.85,SSE,158,4.7,4.7,75,0.00,,---,0.29,VWS V14.01,2013-05-24 11:11:00,
2013-05-24 21:16:00,59.4,51.5,29.85,South,180,3.6,3.6,75,0.00,,---,0.29,VWS V14.01,2013-05-24 11:16:00,
2013-05-24 21:21:00,59.2,51.3,29.85,SW,225,4.0,4.0,75,0.00,,---,0.29,VWS V14.01,2013-05-24 11:21:00,
2013-05-24 21:26:00,59.2,51.3,29.85,SE,135,2.9,3.8,75,0.00,,---,0.29,VWS V14.01,2013-05-24 11:26:00,
2013-05-24 21:31:00,59.0,51.5,29.85,SSE,158,2.7,2.7,76,0.00,,---,0.29,VWS V14.01,2013-05-24 11:31:00,
2013-05-24 21:36:00,58.8,51.6,29.85,WNW,292,3.1,3.1,77,0.00,,---,0.29,VWS V14.01,2013-05-24 11:36:00,
2013-05-24 21:41:00,58.8,51.6,29.85,WSW,248,2.5,2.9,77,0.00,,---,0.29,VWS V14.01,2013-05-24 11:41:00,
2013-05-24 21:46:00,58.8,51.6,29.85,SSW,202,5.4,5.4,77,0.00,,---,0.29,VWS V14.01,2013-05-24 11:46:00,
2013-05-24 21:51:00,58.6,51.8,29.85,SW,225,4.7,4.7,78,0.00,,---,0.29,VWS V14.01,2013-05-24 11:51:00,
2013-05-24 21:56:00,58.6,51.8,29.85,WSW,248,3.6,5.6,78,0.00,,---,0.29,VWS V14.01,2013-05-24 11:56:00,
2013-05-24 22:01:00,58.6,51.8,29.85,ESE,112,2.5,4.0,78,0.00,,---,0.29,VWS V14.01,2013-05-24 12:01:00,
2013-05-24 22:06:00,58.5,52.0,29.85,SSE,158,3.1,3.1,79,0.00,,---,0.29,VWS V14.01,2013-05-24 12:06:00,
2013-05-24 22:11:00,58.5,51.6,29.85,SW,225,4.0,4.7,78,0.00,,---,0.29,VWS V14.01,2013-05-24 12:11:00,
2013-05-24 22:16:00,58.5,52.0,29.85,South,180,3.1,3.1,79,0.00,,---,0.29,VWS V14.01,2013-05-24 12:16:00,
2013-05-24 22:21:00,58.5,52.0,29.85,South,180,4.7,4.7,79,0.00,,---,0.29,VWS V14.01,2013-05-24 12:21:00,
2013-05-24 22:25:00,58.5,52.0,29.85,South,180,4.9,4.9,79,0.00,,---,0.29,VWS V14.01,2013-05-24 12:25:00,
2013-05-24 22:30:00,58.5,52.3,29.85,South,180,3.1,7.4,80,0.00,,---,0.29,VWS V14.01,2013-05-24 12:30:00,
2013-05-24 22:35:00,58.3,52.2,29.85,SSE,158,5.8,5.8,80,0.00,,---,0.29,VWS V14.01,2013-05-24 12:35:00,
2013-05-24 22:40:00,58.1,52.0,29.85,ESE,112,5.4,5.4,80,0.00,,---,0.29,VWS V14.01,2013-05-24 12:40:00,
2013-05-24 22:45:00,58.1,52.3,29.85,ESE,112,3.1,3.1,81,0.00,,---,0.29,VWS V14.01,2013-05-24 12:45:00,
2013-05-24 22:50:00,58.1,52.3,29.88,SSE,158,3.1,3.1,81,0.00,,---,0.29,VWS V14.01,2013-05-24 12:50:00,
2013-05-24 22:55:00,57.9,52.1,29.88,SSE,158,2.9,2.9,81,0.00,,---,0.29,VWS V14.01,2013-05-24 12:55:00,
2013-05-24 23:00:00,57.9,52.1,29.88,SSE,158,2.5,3.6,81,0.00,,---,0.29,VWS V14.01,2013-05-24 13:00:00,
2013-05-24 23:05:00,57.9,52.5,29.85,SSE,158,2.0,2.0,82,0.00,,---,0.29,VWS V14.01,2013-05-24 13:05:00,
2013-05-24 23:10:00,57.7,52.6,29.85,ESE,112,3.4,3.6,83,0.00,,---,0.29,VWS V14.01,2013-05-24 13:10:00,
2013-05-24 23:15:00,57.7,52.6,29.85,South,180,2.2,3.6,83,0.00,,---,0.29,VWS V14.01,2013-05-24 13:15:00,
2013-05-24 23:20:00,57.7,52.6,29.88,WSW,248,1.6,1.6,83,0.00,,---,0.29,VWS V14.01,2013-05-24 13:20:00,
2013-05-24 23:25:00,57.7,52.6,29.88,South,180,0.0,0.0,83,0.00,,---,0.29,VWS V14.01,2013-05-24 13:25:00,
2013-05-24 23:30:00,57.7,52.6,29.88,SW,225,2.7,2.7,83,0.00,,---,0.29,VWS V14.01,2013-05-24 13:30:00,
2013-05-24 23:35:00,57.7,53.0,29.88,South,180,2.9,2.9,84,0.00,,---,0.29,VWS V14.01,2013-05-24 13:35:00,
2013-05-24 23:40:00,57.7,53.0,29.88,SW,225,3.1,3.1,84,0.00,,---,0.29,VWS V14.01,2013-05-24 13:40:00,
2013-05-24 23:45:00,57.6,52.8,29.88,South,180,5.4,8.7,84,0.00,,---,0.29,VWS V14.01,2013-05-24 13:45:00,
2013-05-24 23:50:00,57.6,52.8,29.88,SSW,202,2.5,2.5,84,0.00,,---,0.29,VWS V14.01,2013-05-24 13:50:00,
2013-05-24 23:55:00,57.6,52.8,29.88,South,180,2.5,4.3,84,0.00,,---,0.29,VWS V14.01,2013-05-24 13:55:00,